Forest Row, United Kingdom
Current Conditions -  °F | °C
As of 7:50 PM on Sunday 21 Dec 2014 (Local Time) from EGKK Reporting Station
Broken Clouds Broken Clouds  
Wind Chill: 11°   Ceiling: 900
Heat Index: 11°   Visibility: 6mi
Dew Point:   Wind: 16mph
Humidity: 88%   Direction: 230°SW
Pressure: 30.24"   Gusts: NA
Location:  51.1°N, 0.03°E
Report Text: EGKK 211950Z 23014KT 9999 BKN009 11/09 Q1024
Loading
Personal Weather Stations






























Interactive Weather Map New forecast layout! Learn more

10-Day Weather Forecast

Advertisements
Track Severe Weather on mobile